Garden Grove, Iowa
Current Conditions -  °F | °C
As of 5:55 AM on Thursday 23 Oct 2014 (Local Time) from KI75 Reporting Station
Overcast Overcast  
Wind Chill: 52°   Ceiling: 9500
Heat Index: 52°   Visibility: 10mi
Dew Point: 49°   Wind: 7mph
Humidity: 89%   Direction: 160°SSE
Pressure: 30.06"   Gusts: NA
Location:  40.83°N, 93.61°W
Report Text: KI75 231055Z AUTO 16006KT 10SM BKN095 OVC120 11/10 A3006 RMK AO2 T01120095
Loading
Personal Weather Stations






























Interactive Weather Map
Tropical Storm Tracking
New forecast layout! Learn more

10-Day Weather Forecast

Advertisements
Track Severe Weather on mobile